Terminal Aerodrome Forecast
Issued by NWS

Home | Current Version | Previous Version | Text Only | Print | Product List | Glossary On
Versions: 1 2 3 4 5 6 7 8 9 10 11 12 13 14 15 16 17 18 19 20 21 22 23 24
000
FTUS43 KDMX 301738
TAFMCW
TAF
KMCW 301738Z 3018/3118 15008G14KT P6SM SCT250
     FM302200 17009KT P6SM VCTS BKN060CB
     FM310300 17007KT 4SM -TSRA OVC040CB
     FM310600 16006KT P6SM -SHRA BKN070
     FM311400 20008KT 6SM BR VCTS OVC050CB
     FM311700 23008KT 5SM -TSRA OVC050CB=

USA.gov is the U.S. government's official web portal to all federal, state and local government web resources and services.